Saturday, November 18, 2017, 6:13 PM EST
Back to Local

KART, Watertown International Airport

Location: Dexter, NY, United States Lat: 43.983
Local Time: 6:13 PM EST (23:13 GMT) Lon: -76.033
Time Zone: US/Eastern Elev: 324 ft

Show me the last for .
Show Decoded

2017-11-18 17:56 METAR KART 182256Z AUTO 16009G16KT 10SM BKN023 OVC030 07/02 A2940 RMK AO2 SLP959
                 T00720022 =
2017-11-18 16:56 METAR KART 182156Z AUTO 16009KT 10SM FEW026 OVC037 07/02 A2942 RMK AO2 SLP965
                 T00720017 =
2017-11-18 16:54 METAR KART 182154Z AUTO 16007KT 10SM SCT026 OVC037 07/02 A2942 RMK AO2 =
2017-11-18 15:56 METAR KART 182056Z AUTO 16009KT 10SM BKN028 OVC039 07/01 A2944 RMK AO2 RAE23
                 SLP972 P0000 60000 T00720006 58028 =
2017-11-18 14:56 METAR KART 181956Z AUTO 18009KT 10SM -RA OVC026 07/M01 A2947 RMK AO2 RAB55
                 SLP982 P0000 T00671006 =
2017-11-18 13:56 METAR KART 181856Z AUTO 18006G14KT 10SM OVC028 07/M01 A2950 RMK AO2 SLP995
                 T00671011 =
2017-11-18 13:40 METAR KART 181840Z AUTO 18009G17KT 10SM OVC029 07/M01 A2950 RMK AO2 T00671011 =
2017-11-18 12:56 METAR KART 181756Z AUTO 17008KT 10SM OVC034 07/M02 A2952 RMK AO2 SLP000 60000
                 T00671017 10072 21017 58039 =
2017-11-18 11:56 METAR KART 181656Z AUTO 15003KT 10SM OVC033 07/M01 A2956 RMK AO2 PRESFR SLP012
                 T00671006 =
2017-11-18 10:56 METAR KART 181556Z AUTO 09003KT 10SM FEW043 SCT050 OVC065 06/01 A2961 RMK AO2
                 RAE16 PRESFR SLP030 P0000 T00560006 =
2017-11-18 09:56 METAR KART 181456Z AUTO VRB04KT 7SM -RA OVC060 05/M01 A2964 RMK AO2
                 UPB16E20RAB20 SLP040 P0000 60000 T00501006 58024 =
2017-11-18 08:56 METAR KART 181356Z AUTO 00000KT 10SM OVC100 02/M02 A2967 RMK AO2 SLP053
                 T00171022 =
2017-11-18 07:56 METAR KART 181256Z AUTO 05003KT 10SM SCT120 M01/M04 A2970 RMK AO2 SLP063
                 T10061039 =
2017-11-18 06:56 METAR KART 181156Z AUTO 09003KT 10SM CLR M02/M05 A2971 RMK AO2 SLP066 T10171050
                 11011 21039 56036 =
2017-11-18 05:56 METAR KART 181056Z AUTO 08004KT 10SM CLR M02/M05 A2973 RMK AO2 SLP075 T10221050
                 $ =
2017-11-18 04:56 METAR KART 180956Z AUTO 07004KT 10SM CLR M02/M05 A2978 RMK AO2 SLP089 T10171050
                 =
2017-11-18 03:56 METAR KART 180856Z AUTO 06004KT 10SM BKN110 M02/M04 A2982 RMK AO2 SLP102
                 T10171044 56047 =
2017-11-18 02:56 METAR KART 180756Z AUTO 08005KT 10SM FEW120 M02/M05 A2987 RMK AO2 SLP119
                 T10221050 =
2017-11-18 01:56 METAR KART 180656Z AUTO 08005KT 10SM OVC110 M02/M04 A2990 RMK AO2 PRESFR SLP131
                 T10221044 =
2017-11-18 00:56 METAR KART 180556Z AUTO 09003KT 10SM CLR M03/M05 A2996 RMK AO2 SLP151 T10281050
                 11017 21039 58025 =
2017-11-17 23:56 METAR KART 180456Z AUTO 08003KT 10SM CLR M04/M06 A3000 RMK AO2 SLP164 T10391056
                 400061039 =
2017-11-17 22:56 METAR KART 180356Z AUTO 09004KT 10SM SCT120 M03/M05 A3000 RMK AO2 SLP166
                 T10281050 =
2017-11-17 21:56 METAR KART 180256Z AUTO 15003KT 10SM BKN110 M03/M05 A3003 RMK AO2 SLP177
                 T10281050 58023 =
2017-11-17 20:56 METAR KART 180156Z AUTO 00000KT 10SM CLR M03/M06 A3006 RMK AO2 SLP186 T10331061
                 =
2017-11-17 19:56 METAR KART 180056Z AUTO 16004KT 10SM CLR M02/M06 A3008 RMK AO2 SLP192 T10221056
                 =
2017-11-17 18:56 METAR KART 172356Z AUTO 15004KT 10SM CLR M02/M06 A3010 RMK AO2 SLP200 T10171061
                 10006 21022 58016 =

Support USWX by starting your Amazon purchase here.